• Join FlightAware (Why Join?)
  • Login
  • US Flag 
04:09AM EDT


 

Airport Tracker/Info


-or-


 

Live Flight TrackerFlight Track Log ✈ SWA1287 ✈ 05-Jan-2014 ✈ KDAL - KSAT

Flight Track Log - Related Links

Times and Time Zones

All times are in EST time to prevent confusion due to time zone crossing. See the SWA1287 flight status page for this flight to view local times or setup timezone preferences in your user account.

Time Position Orientation Groundspeed Altitude Reporting Facility
EST Latitude Longitude Course Direction KTS MPH feet Rate Location/Type
02:10AM 32.8500 -96.8667 283° West 132 152 1,800  Level Dallas / Fort Worth TRACON
02:11AM 32.8833 -96.9167 308° West 213 245 4,900 3,660 Climbing Dallas / Fort Worth TRACON
02:12AM 32.8333 -96.9667 220° Southwest 295 339 9,600 3,780 Climbing Dallas / Fort Worth TRACON
02:13AM 32.7500 -97.0000 199° South 358 412 12,900 3,180 Climbing Dallas / Fort Worth TRACON
02:15AM 32.5858 -97.0808 203° Southwest 381 438 18,000 3,360 Climbing Fort Worth Center
02:16AM 32.4867 -97.1275 202° Southwest 393 452 21,900 3,000 Climbing Fort Worth Center
02:17AM 32.3997 -97.1672 201° Southwest 388 447 24,000 1,020 Climbing Fort Worth Center
02:18AM 32.2925 -97.2169 201° Southwest 409 471 24,000  Level Fort Worth Center
02:19AM 32.1869 -97.2653 201° Southwest 406 467 24,000  Level Fort Worth Center
02:20AM 32.0800 -97.3164 202° Southwest 413 475 24,000  Level Fort Worth Center
02:21AM 31.9536 -97.3753 202° Southwest 407 468 24,000  Level Fort Worth Center
02:22AM 31.8683 -97.4133 201° Southwest 399 459 24,000  Level Fort Worth Center
02:23AM 31.7639 -97.4628 202° Southwest 399 459 24,000  Level Fort Worth Center
02:24AM 31.6589 -97.5114 202° Southwest 402 463 24,000  Level Fort Worth Center
02:25AM 31.5528 -97.5603 201° Southwest 405 466 24,000  Level Fort Worth Center
02:26AM 31.4458 -97.6097 202° Southwest 408 470 24,000  Level Fort Worth Center
02:27AM 31.3389 -97.6597 202° Southwest 410 472 24,000  Level Fort Worth Center
02:28AM 31.2325 -97.7078 201° Southwest 409 471 24,000  Level Fort Worth Center
02:29AM 31.1269 -97.7558 201° Southwest 404 465 24,000  Level Fort Worth Center
02:30AM 31.0211 -97.8042 201° Southwest 407 468 24,000 -540 Level Fort Worth Center
02:31AM 30.9156 -97.8528 202° Southwest 406 467 23,000 -1,440 Descending Fort Worth Center
02:32AM 30.8175 -97.8972 201° Southwest 382 440 21,200 -1,680 Descending Fort Worth Center
02:33AM 30.7253 -97.9386 201° Southwest 360 414 19,700 -1,200 Descending Fort Worth Center
02:34AM 30.6311 -97.9814 201° Southwest 359 413 18,800 -960 Descending Fort Worth Center
02:35AM 30.5361 -98.0225 200° South 361 415 17,800 -660 Descending Fort Worth Center
02:36AM 30.4428 -98.0636 201° Southwest 358 412 17,500 -660 Descending Fort Worth Center
02:37AM 30.3514 -98.1053 201° Southwest 353 406 16,500 -1,200 Descending Fort Worth Center
02:38AM 30.2611 -98.1467 202° Southwest 348 400 15,200 -1,620 Descending Fort Worth Center
02:39AM 30.1722 -98.1847 200° South 340 391 13,300 -1,080 Descending Fort Worth Center
02:40AM 30.0908 -98.2219 202° Southwest 322 371 13,100 -1,080 Descending Fort Worth Center
02:41AM 29.9883 -98.2750 204° Southwest 298 343 10,900 -1,860 Descending Houston Center
02:42AM 29.9214 -98.3122 206° Southwest 274 315 9,000 -1,920 Descending Houston Center
02:42AM 29.9206 -98.3147 249° West 267 307 9,000 -2,100 Level Houston Center
02:43AM 29.8492 -98.3511 204° Southwest 285 328 6,900 -2,100 Descending Houston Center
02:43AM 29.8483 -98.3522 229° Southwest 284 327 6,900 -1,800 Level Houston Center
02:44AM 29.7731 -98.3917 204° Southwest 301 346 5,100 -1,800 Descending Houston Center
02:44AM 29.7725 -98.3928 240° Southwest 301 346 5,100 -1,140 Level Houston Center
02:45AM 29.7003 -98.4308 205° Southwest 291 335 4,000 -1,140 Descending Houston Center
02:45AM 29.7003 -98.4306 90° East 293 337 4,000  Level Houston Center
02:46AM 29.6281 -98.4700 205° Southwest 288 331 4,000  Level Houston Center
02:46AM 29.6283 -98.4706 300° West 287 330 4,000 -420 Level Houston Center
02:47AM 29.5681 -98.5172 214° Southwest 265 305 3,600 -420 Descending Houston Center
02:47AM 29.5636 -98.5214 219° Southwest 252 290 3,600 -900 Level Houston Center
02:48AM 29.5064 -98.5594 210° Southwest 231 266 2,700 -720 Descending Houston Center
02:49AM 29.4794 -98.5250 132° Southeast 178 205 2,300 -540 Descending Houston Center
02:49AM 29.4797 -98.5219 84° East 157 181 2,200 -840 Descending Houston Center
02:50AM 29.5000 -98.4931 51° Northeast 126 145 1,500 -840 Descending Houston Center
02:50AM 29.5019 -98.4903 51° Northeast 107 123 1,400 -720 Descending Houston Center
02:51AM 29.5244 -98.4689 40° Northeast 117 135 800 -660 Descending Houston Center